sensor_id;sensor_type;location;lat;lon;timestamp;P1;durP1;ratioP1;P2;durP2;ratioP2
5805;SDS011;2929;50.810;8.342;2022-10-16T00:00:40;36.70;;;7.00;;
5805;SDS011;2929;50.810;8.342;2022-10-16T00:03:09;63.30;;;7.00;;
5805;SDS011;2929;50.810;8.342;2022-10-16T00:05:40;56.27;;;8.60;;
5805;SDS011;2929;50.810;8.342;2022-10-16T00:08:09;132.87;;;11.40;;
5805;SDS011;2929;50.810;8.342;2022-10-16T00:10:37;130.33;;;11.27;;
5805;SDS011;2929;50.810;8.342;2022-10-16T00:13:05;90.30;;;9.43;;
5805;SDS011;2929;50.810;8.342;2022-10-16T00:15:33;48.47;;;10.20;;
5805;SDS011;2929;50.810;8.342;2022-10-16T00:18:02;42.00;;;6.80;;
5805;SDS011;2929;50.810;8.342;2022-10-16T00:20:31;56.47;;;6.23;;
5805;SDS011;2929;50.810;8.342;2022-10-16T00:23:02;28.57;;;4.60;;
5805;SDS011;2929;50.810;8.342;2022-10-16T00:25:30;18.77;;;5.37;;
5805;SDS011;2929;50.810;8.342;2022-10-16T00:27:59;52.87;;;6.70;;
5805;SDS011;2929;50.810;8.342;2022-10-16T00:30:26;45.87;;;9.00;;
5805;SDS011;2929;50.810;8.342;2022-10-16T00:32:54;44.03;;;8.63;;
5805;SDS011;2929;50.810;8.342;2022-10-16T00:35:21;43.53;;;9.00;;
5805;SDS011;2929;50.810;8.342;2022-10-16T00:37:49;52.50;;;9.53;;
5805;SDS011;2929;50.810;8.342;2022-10-16T00:40:16;65.57;;;10.97;;
5805;SDS011;2929;50.810;8.342;2022-10-16T00:42:44;44.30;;;8.80;;
5805;SDS011;2929;50.810;8.342;2022-10-16T00:45:11;45.13;;;10.87;;
5805;SDS011;2929;50.810;8.342;2022-10-16T00:47:39;42.80;;;9.10;;
5805;SDS011;2929;50.810;8.342;2022-10-16T00:50:11;35.00;;;9.07;;
5805;SDS011;2929;50.810;8.342;2022-10-16T00:52:45;80.23;;;11.03;;
5805;SDS011;2929;50.810;8.342;2022-10-16T00:55:16;53.83;;;10.77;;
5805;SDS011;2929;50.810;8.342;2022-10-16T00:57:43;57.47;;;10.00;;
5805;SDS011;2929;50.810;8.342;2022-10-16T01:00:16;42.63;;;10.30;;
5805;SDS011;2929;50.810;8.342;2022-10-16T01:02:51;55.60;;;12.00;;
5805;SDS011;2929;50.810;8.342;2022-10-16T01:05:19;56.77;;;11.50;;
5805;SDS011;2929;50.810;8.342;2022-10-16T01:07:49;52.10;;;10.70;;
5805;SDS011;2929;50.810;8.342;2022-10-16T01:10:27;36.27;;;8.90;;
5805;SDS011;2929;50.810;8.342;2022-10-16T01:13:02;37.27;;;8.90;;
5805;SDS011;2929;50.810;8.342;2022-10-16T01:15:33;35.77;;;8.17;;
5805;SDS011;2929;50.810;8.342;2022-10-16T01:18:04;42.23;;;8.80;;
5805;SDS011;2929;50.810;8.342;2022-10-16T01:20:39;59.47;;;10.40;;
5805;SDS011;2929;50.810;8.342;2022-10-16T01:23:15;49.83;;;8.93;;
5805;SDS011;2929;50.810;8.342;2022-10-16T01:25:55;54.30;;;10.57;;
5805;SDS011;2929;50.810;8.342;2022-10-16T01:28:38;75.07;;;9.17;;
5805;SDS011;2929;50.810;8.342;2022-10-16T01:31:08;63.00;;;9.53;;
5805;SDS011;2929;50.810;8.342;2022-10-16T01:33:38;112.00;;;9.87;;
5805;SDS011;2929;50.810;8.342;2022-10-16T01:36:10;95.67;;;9.47;;
5805;SDS011;2929;50.810;8.342;2022-10-16T01:38:40;51.47;;;9.40;;
5805;SDS011;2929;50.810;8.342;2022-10-16T01:41:11;43.83;;;9.53;;
5805;SDS011;2929;50.810;8.342;2022-10-16T01:43:45;50.90;;;7.80;;
5805;SDS011;2929;50.810;8.342;2022-10-16T01:46:17;37.43;;;7.73;;
5805;SDS011;2929;50.810;8.342;2022-10-16T01:48:46;65.33;;;9.37;;
5805;SDS011;2929;50.810;8.342;2022-10-16T01:51:14;102.73;;;10.67;;
5805;SDS011;2929;50.810;8.342;2022-10-16T01:53:45;96.47;;;10.73;;
5805;SDS011;2929;50.810;8.342;2022-10-16T01:56:15;55.00;;;9.80;;
5805;SDS011;2929;50.810;8.342;2022-10-16T01:58:46;62.97;;;9.40;;
5805;SDS011;2929;50.810;8.342;2022-10-16T02:01:17;71.23;;;11.57;;
5805;SDS011;2929;50.810;8.342;2022-10-16T02:03:48;122.73;;;10.90;;
5805;SDS011;2929;50.810;8.342;2022-10-16T02:06:19;54.90;;;9.60;;
5805;SDS011;2929;50.810;8.342;2022-10-16T02:08:47;61.27;;;9.23;;
5805;SDS011;2929;50.810;8.342;2022-10-16T02:11:14;55.40;;;9.03;;
5805;SDS011;2929;50.810;8.342;2022-10-16T02:13:41;34.33;;;8.50;;
5805;SDS011;2929;50.810;8.342;2022-10-16T02:16:14;46.80;;;8.70;;
5805;SDS011;2929;50.810;8.342;2022-10-16T02:18:41;49.10;;;9.00;;
5805;SDS011;2929;50.810;8.342;2022-10-16T02:21:10;54.07;;;8.90;;
5805;SDS011;2929;50.810;8.342;2022-10-16T02:23:45;46.70;;;8.23;;
5805;SDS011;2929;50.810;8.342;2022-10-16T02:26:19;54.77;;;8.30;;
5805;SDS011;2929;50.810;8.342;2022-10-16T02:28:55;66.93;;;8.40;;
5805;SDS011;2929;50.810;8.342;2022-10-16T02:31:27;72.53;;;9.70;;
5805;SDS011;2929;50.810;8.342;2022-10-16T02:34:00;68.90;;;9.77;;
5805;SDS011;2929;50.810;8.342;2022-10-16T02:36:31;75.57;;;10.33;;
5805;SDS011;2929;50.810;8.342;2022-10-16T02:39:00;60.70;;;7.83;;
5805;SDS011;2929;50.810;8.342;2022-10-16T02:41:29;47.83;;;8.73;;
5805;SDS011;2929;50.810;8.342;2022-10-16T02:43:58;42.10;;;9.80;;
5805;SDS011;2929;50.810;8.342;2022-10-16T02:46:25;62.97;;;7.93;;
5805;SDS011;2929;50.810;8.342;2022-10-16T02:48:52;31.93;;;9.07;;
5805;SDS011;2929;50.810;8.342;2022-10-16T02:51:19;58.57;;;10.17;;
5805;SDS011;2929;50.810;8.342;2022-10-16T02:53:46;83.53;;;11.63;;
5805;SDS011;2929;50.810;8.342;2022-10-16T02:56:13;73.10;;;9.13;;
5805;SDS011;2929;50.810;8.342;2022-10-16T02:58:40;44.63;;;8.70;;
5805;SDS011;2929;50.810;8.342;2022-10-16T03:01:08;58.53;;;9.77;;
5805;SDS011;2929;50.810;8.342;2022-10-16T03:03:37;51.37;;;8.40;;
5805;SDS011;2929;50.810;8.342;2022-10-16T03:06:04;48.70;;;7.90;;
5805;SDS011;2929;50.810;8.342;2022-10-16T03:08:31;22.57;;;7.20;;
5805;SDS011;2929;50.810;8.342;2022-10-16T03:10:58;30.47;;;6.97;;
5805;SDS011;2929;50.810;8.342;2022-10-16T03:13:27;33.97;;;7.40;;
5805;SDS011;2929;50.810;8.342;2022-10-16T03:15:54;33.30;;;6.10;;
5805;SDS011;2929;50.810;8.342;2022-10-16T03:18:23;20.53;;;6.03;;
5805;SDS011;2929;50.810;8.342;2022-10-16T03:20:50;16.43;;;6.67;;
5805;SDS011;2929;50.810;8.342;2022-10-16T03:23:16;21.50;;;7.80;;
5805;SDS011;2929;50.810;8.342;2022-10-16T03:25:43;15.77;;;7.10;;
5805;SDS011;2929;50.810;8.342;2022-10-16T03:28:10;18.37;;;6.60;;
5805;SDS011;2929;50.810;8.342;2022-10-16T03:30:38;13.03;;;7.20;;
5805;SDS011;2929;50.810;8.342;2022-10-16T03:33:05;10.80;;;6.30;;
5805;SDS011;2929;50.810;8.342;2022-10-16T03:35:34;10.87;;;6.13;;
5805;SDS011;2929;50.810;8.342;2022-10-16T03:38:01;14.80;;;5.70;;
5805;SDS011;2929;50.810;8.342;2022-10-16T03:40:28;12.83;;;6.40;;
5805;SDS011;2929;50.810;8.342;2022-10-16T03:42:57;10.17;;;6.33;;
5805;SDS011;2929;50.810;8.342;2022-10-16T03:45:24;12.97;;;6.27;;
5805;SDS011;2929;50.810;8.342;2022-10-16T03:47:51;10.57;;;6.27;;
5805;SDS011;2929;50.810;8.342;2022-10-16T03:50:18;20.43;;;7.77;;
5805;SDS011;2929;50.810;8.342;2022-10-16T03:52:46;11.43;;;6.77;;
5805;SDS011;2929;50.810;8.342;2022-10-16T03:55:13;13.13;;;7.50;;
5805;SDS011;2929;50.810;8.342;2022-10-16T03:57:40;12.00;;;7.73;;
5805;SDS011;2929;50.810;8.342;2022-10-16T04:00:08;10.60;;;7.00;;
5805;SDS011;2929;50.810;8.342;2022-10-16T04:02:39;13.07;;;6.70;;
5805;SDS011;2929;50.810;8.342;2022-10-16T04:05:06;9.57;;;6.90;;
5805;SDS011;2929;50.810;8.342;2022-10-16T04:07:34;12.63;;;6.90;;
5805;SDS011;2929;50.810;8.342;2022-10-16T04:10:02;16.13;;;6.37;;
5805;SDS011;2929;50.810;8.342;2022-10-16T04:12:30;7.97;;;6.43;;
5805;SDS011;2929;50.810;8.342;2022-10-16T04:14:57;9.57;;;7.20;;
5805;SDS011;2929;50.810;8.342;2022-10-16T04:17:24;8.07;;;6.20;;
5805;SDS011;2929;50.810;8.342;2022-10-16T04:19:51;8.57;;;6.27;;
5805;SDS011;2929;50.810;8.342;2022-10-16T04:22:18;8.87;;;6.90;;
5805;SDS011;2929;50.810;8.342;2022-10-16T04:24:45;8.97;;;6.00;;
5805;SDS011;2929;50.810;8.342;2022-10-16T04:27:13;13.37;;;6.87;;
5805;SDS011;2929;50.810;8.342;2022-10-16T04:29:40;15.27;;;6.60;;
5805;SDS011;2929;50.810;8.342;2022-10-16T04:32:07;11.40;;;7.67;;
5805;SDS011;2929;50.810;8.342;2022-10-16T04:34:35;13.63;;;6.63;;
5805;SDS011;2929;50.810;8.342;2022-10-16T04:37:03;13.57;;;7.17;;
5805;SDS011;2929;50.810;8.342;2022-10-16T04:39:30;8.87;;;6.93;;
5805;SDS011;2929;50.810;8.342;2022-10-16T04:41:57;10.43;;;6.80;;
5805;SDS011;2929;50.810;8.342;2022-10-16T04:44:25;10.37;;;6.07;;
5805;SDS011;2929;50.810;8.342;2022-10-16T04:46:52;8.27;;;6.83;;
5805;SDS011;2929;50.810;8.342;2022-10-16T04:49:19;9.07;;;5.80;;
5805;SDS011;2929;50.810;8.342;2022-10-16T04:51:46;8.90;;;5.70;;
5805;SDS011;2929;50.810;8.342;2022-10-16T04:54:13;10.40;;;6.63;;
5805;SDS011;2929;50.810;8.342;2022-10-16T04:56:40;10.13;;;6.73;;
5805;SDS011;2929;50.810;8.342;2022-10-16T04:59:12;14.47;;;6.50;;
5805;SDS011;2929;50.810;8.342;2022-10-16T05:01:40;6.93;;;5.53;;
5805;SDS011;2929;50.810;8.342;2022-10-16T05:04:08;9.10;;;6.20;;
5805;SDS011;2929;50.810;8.342;2022-10-16T05:06:35;13.90;;;5.70;;
5805;SDS011;2929;50.810;8.342;2022-10-16T05:09:03;5.83;;;5.10;;
5805;SDS011;2929;50.810;8.342;2022-10-16T05:11:30;6.83;;;5.07;;
5805;SDS011;2929;50.810;8.342;2022-10-16T05:13:58;5.07;;;4.43;;
5805;SDS011;2929;50.810;8.342;2022-10-16T05:16:25;8.33;;;4.63;;
5805;SDS011;2929;50.810;8.342;2022-10-16T05:18:53;4.37;;;3.93;;
5805;SDS011;2929;50.810;8.342;2022-10-16T05:21:21;5.87;;;3.73;;
5805;SDS011;2929;50.810;8.342;2022-10-16T05:23:48;8.10;;;3.17;;
5805;SDS011;2929;50.810;8.342;2022-10-16T05:26:15;6.23;;;3.70;;
5805;SDS011;2929;50.810;8.342;2022-10-16T05:28:42;3.33;;;3.03;;
5805;SDS011;2929;50.810;8.342;2022-10-16T05:31:09;6.03;;;3.03;;
5805;SDS011;2929;50.810;8.342;2022-10-16T05:33:37;8.33;;;3.10;;
5805;SDS011;2929;50.810;8.342;2022-10-16T05:36:06;3.30;;;2.60;;
5805;SDS011;2929;50.810;8.342;2022-10-16T05:38:35;4.40;;;2.53;;
5805;SDS011;2929;50.810;8.342;2022-10-16T05:41:02;6.43;;;2.70;;
5805;SDS011;2929;50.810;8.342;2022-10-16T05:43:30;4.73;;;2.50;;
5805;SDS011;2929;50.810;8.342;2022-10-16T05:45:59;2.93;;;2.50;;
5805;SDS011;2929;50.810;8.342;2022-10-16T05:48:27;2.43;;;2.27;;
5805;SDS011;2929;50.810;8.342;2022-10-16T05:50:58;4.10;;;2.40;;
5805;SDS011;2929;50.810;8.342;2022-10-16T05:53:28;2.80;;;2.47;;
5805;SDS011;2929;50.810;8.342;2022-10-16T05:55:56;5.50;;;2.00;;
5805;SDS011;2929;50.810;8.342;2022-10-16T05:58:25;2.40;;;2.10;;
5805;SDS011;2929;50.810;8.342;2022-10-16T06:00:55;4.63;;;2.67;;
5805;SDS011;2929;50.810;8.342;2022-10-16T06:03:23;4.57;;;1.97;;
5805;SDS011;2929;50.810;8.342;2022-10-16T06:05:50;7.23;;;2.00;;
5805;SDS011;2929;50.810;8.342;2022-10-16T06:08:17;2.37;;;2.17;;
5805;SDS011;2929;50.810;8.342;2022-10-16T06:10:46;2.03;;;1.87;;
5805;SDS011;2929;50.810;8.342;2022-10-16T06:13:14;6.23;;;2.37;;
5805;SDS011;2929;50.810;8.342;2022-10-16T06:15:42;1.90;;;1.80;;
5805;SDS011;2929;50.810;8.342;2022-10-16T06:18:09;1.93;;;1.83;;
5805;SDS011;2929;50.810;8.342;2022-10-16T06:20:36;4.90;;;2.07;;
5805;SDS011;2929;50.810;8.342;2022-10-16T06:23:03;3.43;;;1.93;;
5805;SDS011;2929;50.810;8.342;2022-10-16T06:25:30;2.00;;;1.80;;
5805;SDS011;2929;50.810;8.342;2022-10-16T06:27:59;1.73;;;1.63;;
5805;SDS011;2929;50.810;8.342;2022-10-16T06:30:26;4.60;;;1.60;;
5805;SDS011;2929;50.810;8.342;2022-10-16T06:32:53;5.67;;;2.20;;
5805;SDS011;2929;50.810;8.342;2022-10-16T06:35:20;4.73;;;1.50;;
5805;SDS011;2929;50.810;8.342;2022-10-16T06:37:47;3.20;;;2.20;;
5805;SDS011;2929;50.810;8.342;2022-10-16T06:40:14;2.43;;;2.20;;
5805;SDS011;2929;50.810;8.342;2022-10-16T06:42:41;5.40;;;2.00;;
5805;SDS011;2929;50.810;8.342;2022-10-16T06:45:10;1.60;;;1.50;;
5805;SDS011;2929;50.810;8.342;2022-10-16T06:47:37;2.50;;;1.60;;
5805;SDS011;2929;50.810;8.342;2022-10-16T06:50:05;1.57;;;1.20;;
5805;SDS011;2929;50.810;8.342;2022-10-16T06:52:32;8.53;;;2.60;;
5805;SDS011;2929;50.810;8.342;2022-10-16T06:55:00;1.37;;;1.27;;
5805;SDS011;2929;50.810;8.342;2022-10-16T06:57:28;1.67;;;1.40;;
5805;SDS011;2929;50.810;8.342;2022-10-16T06:59:55;4.10;;;1.70;;
5805;SDS011;2929;50.810;8.342;2022-10-16T07:02:24;1.60;;;1.30;;
5805;SDS011;2929;50.810;8.342;2022-10-16T07:04:51;1.60;;;1.50;;
5805;SDS011;2929;50.810;8.342;2022-10-16T07:07:18;2.90;;;1.63;;
5805;SDS011;2929;50.810;8.342;2022-10-16T07:09:45;3.63;;;1.40;;
5805;SDS011;2929;50.810;8.342;2022-10-16T07:12:12;3.13;;;1.50;;
5805;SDS011;2929;50.810;8.342;2022-10-16T07:14:39;2.00;;;1.27;;
5805;SDS011;2929;50.810;8.342;2022-10-16T07:17:06;4.93;;;1.20;;
5805;SDS011;2929;50.810;8.342;2022-10-16T07:19:34;2.10;;;0.90;;
5805;SDS011;2929;50.810;8.342;2022-10-16T07:22:02;2.10;;;0.90;;
5805;SDS011;2929;50.810;8.342;2022-10-16T07:24:30;2.50;;;1.20;;
5805;SDS011;2929;50.810;8.342;2022-10-16T07:26:57;6.40;;;1.23;;
5805;SDS011;2929;50.810;8.342;2022-10-16T07:29:24;2.13;;;1.27;;
5805;SDS011;2929;50.810;8.342;2022-10-16T07:31:51;2.40;;;0.90;;
5805;SDS011;2929;50.810;8.342;2022-10-16T07:34:18;8.97;;;1.40;;
5805;SDS011;2929;50.810;8.342;2022-10-16T07:36:48;1.90;;;0.80;;
5805;SDS011;2929;50.810;8.342;2022-10-16T07:39:16;1.47;;;1.10;;
5805;SDS011;2929;50.810;8.342;2022-10-16T07:41:43;1.83;;;1.40;;
5805;SDS011;2929;50.810;8.342;2022-10-16T07:44:10;2.00;;;1.20;;
5805;SDS011;2929;50.810;8.342;2022-10-16T07:46:37;5.47;;;0.90;;
5805;SDS011;2929;50.810;8.342;2022-10-16T07:49:04;1.30;;;1.20;;
5805;SDS011;2929;50.810;8.342;2022-10-16T07:51:31;2.70;;;1.43;;
5805;SDS011;2929;50.810;8.342;2022-10-16T07:53:59;2.50;;;1.10;;
5805;SDS011;2929;50.810;8.342;2022-10-16T07:56:27;6.53;;;0.90;;
5805;SDS011;2929;50.810;8.342;2022-10-16T07:58:54;1.73;;;1.40;;
5805;SDS011;2929;50.810;8.342;2022-10-16T08:01:21;3.23;;;1.27;;
5805;SDS011;2929;50.810;8.342;2022-10-16T08:03:49;6.70;;;1.13;;
5805;SDS011;2929;50.810;8.342;2022-10-16T08:06:18;2.60;;;1.20;;
5805;SDS011;2929;50.810;8.342;2022-10-16T08:08:46;2.73;;;1.10;;
5805;SDS011;2929;50.810;8.342;2022-10-16T08:11:15;0.80;;;0.70;;
5805;SDS011;2929;50.810;8.342;2022-10-16T08:13:42;1.17;;;0.90;;
5805;SDS011;2929;50.810;8.342;2022-10-16T08:16:09;1.00;;;0.90;;
5805;SDS011;2929;50.810;8.342;2022-10-16T08:18:37;2.60;;;0.90;;
5805;SDS011;2929;50.810;8.342;2022-10-16T08:21:05;3.63;;;1.10;;
5805;SDS011;2929;50.810;8.342;2022-10-16T08:23:33;1.13;;;0.90;;
5805;SDS011;2929;50.810;8.342;2022-10-16T08:26:04;1.17;;;1.07;;
5805;SDS011;2929;50.810;8.342;2022-10-16T08:28:35;4.53;;;1.10;;
5805;SDS011;2929;50.810;8.342;2022-10-16T08:31:06;1.13;;;1.13;;
5805;SDS011;2929;50.810;8.342;2022-10-16T08:33:35;3.43;;;1.03;;
5805;SDS011;2929;50.810;8.342;2022-10-16T08:36:02;2.30;;;1.20;;
5805;SDS011;2929;50.810;8.342;2022-10-16T08:38:30;2.60;;;1.10;;
5805;SDS011;2929;50.810;8.342;2022-10-16T08:41:01;3.83;;;1.00;;
5805;SDS011;2929;50.810;8.342;2022-10-16T08:43:43;2.17;;;1.63;;
5805;SDS011;2929;50.810;8.342;2022-10-16T08:46:35;2.73;;;1.23;;
5805;SDS011;2929;50.810;8.342;2022-10-16T08:49:09;2.07;;;1.40;;
5805;SDS011;2929;50.810;8.342;2022-10-16T08:51:39;2.40;;;1.27;;
5805;SDS011;2929;50.810;8.342;2022-10-16T08:54:11;4.33;;;1.07;;
5805;SDS011;2929;50.810;8.342;2022-10-16T08:56:49;3.80;;;1.40;;
5805;SDS011;2929;50.810;8.342;2022-10-16T08:59:17;2.73;;;1.80;;
5805;SDS011;2929;50.810;8.342;2022-10-16T09:01:46;2.97;;;1.10;;
5805;SDS011;2929;50.810;8.342;2022-10-16T09:07:16;1.10;;;1.00;;
5805;SDS011;2929;50.810;8.342;2022-10-16T09:09:55;1.83;;;1.07;;
5805;SDS011;2929;50.810;8.342;2022-10-16T09:12:34;0.93;;;0.93;;
5805;SDS011;2929;50.810;8.342;2022-10-16T09:15:14;9.77;;;1.30;;
5805;SDS011;2929;50.810;8.342;2022-10-16T09:17:51;1.53;;;1.27;;
5805;SDS011;2929;50.810;8.342;2022-10-16T09:20:26;2.17;;;0.80;;
5805;SDS011;2929;50.810;8.342;2022-10-16T09:23:07;0.87;;;0.87;;
5805;SDS011;2929;50.810;8.342;2022-10-16T09:25:41;2.90;;;1.33;;
5805;SDS011;2929;50.810;8.342;2022-10-16T09:28:10;2.50;;;1.20;;
5805;SDS011;2929;50.810;8.342;2022-10-16T09:30:39;0.80;;;0.80;;
5805;SDS011;2929;50.810;8.342;2022-10-16T09:33:06;1.53;;;0.97;;
5805;SDS011;2929;50.810;8.342;2022-10-16T09:35:36;6.63;;;0.90;;
5805;SDS011;2929;50.810;8.342;2022-10-16T09:38:05;1.47;;;0.97;;
5805;SDS011;2929;50.810;8.342;2022-10-16T09:40:34;1.70;;;1.10;;
5805;SDS011;2929;50.810;8.342;2022-10-16T09:43:09;1.87;;;1.00;;
5805;SDS011;2929;50.810;8.342;2022-10-16T09:45:54;5.70;;;1.07;;
5805;SDS011;2929;50.810;8.342;2022-10-16T09:48:23;2.37;;;0.90;;
5805;SDS011;2929;50.810;8.342;2022-10-16T09:50:57;0.97;;;0.83;;
5805;SDS011;2929;50.810;8.342;2022-10-16T09:53:26;2.50;;;1.00;;
5805;SDS011;2929;50.810;8.342;2022-10-16T09:56:04;8.03;;;0.90;;
5805;SDS011;2929;50.810;8.342;2022-10-16T09:58:32;2.00;;;0.80;;
5805;SDS011;2929;50.810;8.342;2022-10-16T10:01:01;0.97;;;0.87;;
5805;SDS011;2929;50.810;8.342;2022-10-16T10:03:33;0.93;;;0.90;;
5805;SDS011;2929;50.810;8.342;2022-10-16T10:06:05;4.00;;;0.80;;
5805;SDS011;2929;50.810;8.342;2022-10-16T10:08:41;1.97;;;1.00;;
5805;SDS011;2929;50.810;8.342;2022-10-16T10:14:23;1.20;;;0.90;;
5805;SDS011;2929;50.810;8.342;2022-10-16T10:19:48;1.67;;;1.10;;
5805;SDS011;2929;50.810;8.342;2022-10-16T10:22:22;2.10;;;0.80;;
5805;SDS011;2929;50.810;8.342;2022-10-16T10:25:07;1.10;;;0.93;;
5805;SDS011;2929;50.810;8.342;2022-10-16T10:27:45;5.30;;;1.07;;
5805;SDS011;2929;50.810;8.342;2022-10-16T10:30:27;1.03;;;0.60;;
5805;SDS011;2929;50.810;8.342;2022-10-16T10:33:06;1.57;;;0.73;;
5805;SDS011;2929;50.810;8.342;2022-10-16T10:35:42;2.63;;;0.83;;
5805;SDS011;2929;50.810;8.342;2022-10-16T10:38:21;1.47;;;1.23;;
5805;SDS011;2929;50.810;8.342;2022-10-16T10:40:59;1.90;;;0.80;;
5805;SDS011;2929;50.810;8.342;2022-10-16T10:43:41;2.47;;;0.83;;
5805;SDS011;2929;50.810;8.342;2022-10-16T10:46:17;7.80;;;0.97;;
5805;SDS011;2929;50.810;8.342;2022-10-16T10:49:00;1.20;;;0.70;;
5805;SDS011;2929;50.810;8.342;2022-10-16T10:51:41;2.43;;;0.57;;
5805;SDS011;2929;50.810;8.342;2022-10-16T10:54:17;1.50;;;0.80;;
5805;SDS011;2929;50.810;8.342;2022-10-16T10:56:56;5.20;;;0.70;;
5805;SDS011;2929;50.810;8.342;2022-10-16T10:59:37;3.40;;;0.77;;
5805;SDS011;2929;50.810;8.342;2022-10-16T11:02:16;0.90;;;0.70;;
5805;SDS011;2929;50.810;8.342;2022-10-16T11:07:58;0.80;;;0.80;;
5805;SDS011;2929;50.810;8.342;2022-10-16T11:10:29;5.10;;;0.73;;
5805;SDS011;2929;50.810;8.342;2022-10-16T11:13:15;1.57;;;0.70;;
5805;SDS011;2929;50.810;8.342;2022-10-16T11:15:48;0.93;;;0.70;;
5805;SDS011;2929;50.810;8.342;2022-10-16T11:18:21;0.70;;;0.70;;
5805;SDS011;2929;50.810;8.342;2022-10-16T11:20:56;0.60;;;0.60;;
5805;SDS011;2929;50.810;8.342;2022-10-16T11:23:27;1.80;;;0.70;;
5805;SDS011;2929;50.810;8.342;2022-10-16T11:25:59;2.10;;;0.80;;
5805;SDS011;2929;50.810;8.342;2022-10-16T11:28:29;7.80;;;0.90;;
5805;SDS011;2929;50.810;8.342;2022-10-16T11:31:00;0.80;;;0.80;;
5805;SDS011;2929;50.810;8.342;2022-10-16T11:33:32;1.17;;;0.70;;
5805;SDS011;2929;50.810;8.342;2022-10-16T11:36:11;1.43;;;0.70;;
5805;SDS011;2929;50.810;8.342;2022-10-16T11:38:42;1.23;;;0.70;;
5805;SDS011;2929;50.810;8.342;2022-10-16T11:41:18;4.00;;;0.70;;
5805;SDS011;2929;50.810;8.342;2022-10-16T11:43:52;0.80;;;0.60;;
5805;SDS011;2929;50.810;8.342;2022-10-16T11:46:29;0.60;;;0.60;;
5805;SDS011;2929;50.810;8.342;2022-10-16T11:49:00;4.83;;;0.73;;
5805;SDS011;2929;50.810;8.342;2022-10-16T11:51:37;0.60;;;0.60;;
5805;SDS011;2929;50.810;8.342;2022-10-16T11:54:08;1.13;;;0.80;;
5805;SDS011;2929;50.810;8.342;2022-10-16T11:56:46;1.23;;;0.60;;
5805;SDS011;2929;50.810;8.342;2022-10-16T11:59:18;1.03;;;0.70;;
5805;SDS011;2929;50.810;8.342;2022-10-16T12:01:52;1.33;;;0.80;;
5805;SDS011;2929;50.810;8.342;2022-10-16T12:04:25;2.03;;;0.60;;
5805;SDS011;2929;50.810;8.342;2022-10-16T12:07:02;0.60;;;0.57;;
5805;SDS011;2929;50.810;8.342;2022-10-16T12:09:32;4.17;;;0.70;;
5805;SDS011;2929;50.810;8.342;2022-10-16T12:12:03;3.90;;;0.67;;
5805;SDS011;2929;50.810;8.342;2022-10-16T12:14:35;5.33;;;1.67;;
5805;SDS011;2929;50.810;8.342;2022-10-16T12:20:00;1.00;;;0.70;;
5805;SDS011;2929;50.810;8.342;2022-10-16T12:22:49;1.00;;;0.70;;
5805;SDS011;2929;50.810;8.342;2022-10-16T12:25:21;1.53;;;0.70;;
5805;SDS011;2929;50.810;8.342;2022-10-16T12:28:00;0.50;;;0.50;;
5805;SDS011;2929;50.810;8.342;2022-10-16T12:30:29;4.07;;;0.77;;
5805;SDS011;2929;50.810;8.342;2022-10-16T12:32:58;3.70;;;0.60;;
5805;SDS011;2929;50.810;8.342;2022-10-16T12:35:28;3.33;;;0.70;;
5805;SDS011;2929;50.810;8.342;2022-10-16T12:38:06;3.17;;;0.60;;
5805;SDS011;2929;50.810;8.342;2022-10-16T12:40:40;0.70;;;0.53;;
5805;SDS011;2929;50.810;8.342;2022-10-16T12:43:26;0.60;;;0.60;;
5805;SDS011;2929;50.810;8.342;2022-10-16T12:46:02;1.23;;;0.67;;
5805;SDS011;2929;50.810;8.342;2022-10-16T12:48:30;0.60;;;0.60;;
5805;SDS011;2929;50.810;8.342;2022-10-16T12:51:08;4.77;;;0.70;;
5805;SDS011;2929;50.810;8.342;2022-10-16T12:53:38;1.53;;;0.60;;
5805;SDS011;2929;50.810;8.342;2022-10-16T12:56:09;1.60;;;0.70;;
5805;SDS011;2929;50.810;8.342;2022-10-16T12:58:48;5.20;;;0.73;;
5805;SDS011;2929;50.810;8.342;2022-10-16T13:01:26;1.50;;;0.73;;
5805;SDS011;2929;50.810;8.342;2022-10-16T13:04:18;1.00;;;0.80;;
5805;SDS011;2929;50.810;8.342;2022-10-16T13:06:53;3.00;;;0.73;;
5805;SDS011;2929;50.810;8.342;2022-10-16T13:09:32;4.17;;;0.80;;
5805;SDS011;2929;50.810;8.342;2022-10-16T13:12:13;1.83;;;0.90;;
5805;SDS011;2929;50.810;8.342;2022-10-16T13:14:58;0.90;;;0.60;;
5805;SDS011;2929;50.810;8.342;2022-10-16T13:17:45;1.00;;;0.60;;
5805;SDS011;2929;50.810;8.342;2022-10-16T13:20:20;0.77;;;0.70;;
5805;SDS011;2929;50.810;8.342;2022-10-16T13:22:54;0.63;;;0.60;;
5805;SDS011;2929;50.810;8.342;2022-10-16T13:25:31;1.13;;;1.03;;
5805;SDS011;2929;50.810;8.342;2022-10-16T13:28:07;0.80;;;0.80;;
5805;SDS011;2929;50.810;8.342;2022-10-16T13:30:37;0.63;;;0.60;;
5805;SDS011;2929;50.810;8.342;2022-10-16T13:33:07;1.27;;;0.50;;
5805;SDS011;2929;50.810;8.342;2022-10-16T13:35:46;3.13;;;0.60;;
5805;SDS011;2929;50.810;8.342;2022-10-16T13:38:16;0.50;;;0.50;;
5805;SDS011;2929;50.810;8.342;2022-10-16T13:40:50;2.20;;;0.57;;
5805;SDS011;2929;50.810;8.342;2022-10-16T13:43:18;1.17;;;0.57;;
5805;SDS011;2929;50.810;8.342;2022-10-16T13:45:58;0.90;;;0.60;;
5805;SDS011;2929;50.810;8.342;2022-10-16T13:48:27;0.60;;;0.60;;
5805;SDS011;2929;50.810;8.342;2022-10-16T13:50:58;1.80;;;0.60;;
5805;SDS011;2929;50.810;8.342;2022-10-16T13:53:37;0.83;;;0.60;;
5805;SDS011;2929;50.810;8.342;2022-10-16T13:56:06;1.33;;;0.70;;
5805;SDS011;2929;50.810;8.342;2022-10-16T13:58:34;2.03;;;0.60;;
5805;SDS011;2929;50.810;8.342;2022-10-16T14:01:02;2.93;;;0.70;;
5805;SDS011;2929;50.810;8.342;2022-10-16T14:03:31;1.50;;;0.60;;
5805;SDS011;2929;50.810;8.342;2022-10-16T14:06:01;1.90;;;0.70;;
5805;SDS011;2929;50.810;8.342;2022-10-16T14:08:30;0.80;;;0.60;;
5805;SDS011;2929;50.810;8.342;2022-10-16T14:10:58;2.03;;;0.70;;
5805;SDS011;2929;50.810;8.342;2022-10-16T14:13:31;2.40;;;0.63;;
5805;SDS011;2929;50.810;8.342;2022-10-16T14:16:02;0.70;;;0.70;;
5805;SDS011;2929;50.810;8.342;2022-10-16T14:18:33;1.87;;;0.60;;
5805;SDS011;2929;50.810;8.342;2022-10-16T14:21:04;1.53;;;0.87;;
5805;SDS011;2929;50.810;8.342;2022-10-16T14:23:33;4.87;;;0.60;;
5805;SDS011;2929;50.810;8.342;2022-10-16T14:26:13;0.93;;;0.80;;
5805;SDS011;2929;50.810;8.342;2022-10-16T14:28:44;1.53;;;0.70;;
5805;SDS011;2929;50.810;8.342;2022-10-16T14:31:24;1.17;;;0.50;;
5805;SDS011;2929;50.810;8.342;2022-10-16T14:33:56;3.77;;;0.90;;
5805;SDS011;2929;50.810;8.342;2022-10-16T14:36:23;0.57;;;0.57;;
5805;SDS011;2929;50.810;8.342;2022-10-16T14:38:55;2.40;;;0.70;;
5805;SDS011;2929;50.810;8.342;2022-10-16T14:41:25;5.40;;;1.10;;
5805;SDS011;2929;50.810;8.342;2022-10-16T14:43:54;0.73;;;0.73;;
5805;SDS011;2929;50.810;8.342;2022-10-16T14:46:28;1.10;;;0.60;;
5805;SDS011;2929;50.810;8.342;2022-10-16T14:48:59;3.53;;;0.80;;
5805;SDS011;2929;50.810;8.342;2022-10-16T14:51:29;1.37;;;0.60;;
5805;SDS011;2929;50.810;8.342;2022-10-16T14:53:56;2.10;;;0.60;;
5805;SDS011;2929;50.810;8.342;2022-10-16T14:56:24;1.07;;;0.60;;
5805;SDS011;2929;50.810;8.342;2022-10-16T14:58:55;1.90;;;0.60;;
5805;SDS011;2929;50.810;8.342;2022-10-16T15:01:22;2.60;;;0.60;;
5805;SDS011;2929;50.810;8.342;2022-10-16T15:03:49;2.60;;;0.63;;
5805;SDS011;2929;50.810;8.342;2022-10-16T15:06:19;3.53;;;0.70;;
5805;SDS011;2929;50.810;8.342;2022-10-16T15:08:46;0.67;;;0.67;;
5805;SDS011;2929;50.810;8.342;2022-10-16T15:11:15;1.57;;;0.90;;
5805;SDS011;2929;50.810;8.342;2022-10-16T15:13:43;1.83;;;0.80;;
5805;SDS011;2929;50.810;8.342;2022-10-16T15:16:13;0.63;;;0.63;;
5805;SDS011;2929;50.810;8.342;2022-10-16T15:18:41;1.23;;;1.13;;
5805;SDS011;2929;50.810;8.342;2022-10-16T15:21:09;1.27;;;0.80;;
5805;SDS011;2929;50.810;8.342;2022-10-16T15:23:48;0.70;;;0.70;;
5805;SDS011;2929;50.810;8.342;2022-10-16T15:26:15;0.83;;;0.80;;
5805;SDS011;2929;50.810;8.342;2022-10-16T15:28:42;5.30;;;0.70;;
5805;SDS011;2929;50.810;8.342;2022-10-16T15:31:09;3.60;;;0.70;;
5805;SDS011;2929;50.810;8.342;2022-10-16T15:33:38;0.70;;;0.70;;
5805;SDS011;2929;50.810;8.342;2022-10-16T15:36:05;1.00;;;0.90;;
5805;SDS011;2929;50.810;8.342;2022-10-16T15:38:33;1.47;;;0.80;;
5805;SDS011;2929;50.810;8.342;2022-10-16T15:41:00;0.70;;;0.70;;
5805;SDS011;2929;50.810;8.342;2022-10-16T15:43:27;5.97;;;0.67;;
5805;SDS011;2929;50.810;8.342;2022-10-16T15:45:58;2.20;;;0.77;;